createdAt,value
2018-07-01T00:02:02.780Z,24.1
2018-07-01T00:12:02.013Z,24
2018-07-01T00:22:01.239Z,24
2018-07-01T00:32:00.457Z,24.1
2018-07-01T00:41:59.682Z,24.1
2018-07-01T00:51:58.908Z,24
2018-07-01T01:01:58.134Z,24
2018-07-01T01:11:57.358Z,24.1
2018-07-01T01:21:56.581Z,24.1
2018-07-01T01:31:55.806Z,24.1
2018-07-01T01:41:55.032Z,24.1
2018-07-01T01:51:54.256Z,24.1
2018-07-01T02:01:53.480Z,24.1
2018-07-01T02:11:52.706Z,24.1
2018-07-01T02:21:51.929Z,24
2018-07-01T02:31:51.161Z,24
2018-07-01T02:41:50.379Z,24
2018-07-01T02:51:49.611Z,24
2018-07-01T03:01:48.828Z,24
2018-07-01T03:11:48.056Z,24
2018-07-01T03:21:47.277Z,24
2018-07-01T03:31:46.502Z,24
2018-07-01T03:41:45.726Z,23.9
2018-07-01T03:51:44.949Z,23.9
2018-07-01T04:01:44.176Z,23.9
2018-07-01T04:11:43.401Z,23.9
2018-07-01T04:21:42.623Z,24
2018-07-01T04:31:41.844Z,24
2018-07-01T04:41:41.069Z,24.1
2018-07-01T04:51:40.293Z,24.1
2018-07-01T05:01:39.517Z,24.1
2018-07-01T05:11:38.746Z,24.1
2018-07-01T05:21:37.964Z,24.2
2018-07-01T05:31:37.186Z,24.1
2018-07-01T05:41:36.410Z,23.9
2018-07-01T05:51:35.633Z,23.8
2018-07-01T06:01:34.858Z,23.7
2018-07-01T06:11:34.083Z,23.7
2018-07-01T06:21:33.309Z,23.8
2018-07-01T06:31:32.536Z,23.8
2018-07-01T06:41:31.753Z,23.8
2018-07-01T06:51:30.978Z,23.8
2018-07-01T07:01:30.200Z,23.8
2018-07-01T07:11:29.430Z,23.9
2018-07-01T07:21:28.650Z,23.9
2018-07-01T07:31:27.876Z,23.9
2018-07-01T07:41:27.103Z,24
2018-07-01T07:51:26.320Z,24
2018-07-01T08:01:25.545Z,24.1
2018-07-01T08:11:24.770Z,24.1
2018-07-01T08:21:24.004Z,24.2
2018-07-01T08:31:23.217Z,24.3
2018-07-01T08:41:22.441Z,24.3
2018-07-01T08:51:21.665Z,24.4
2018-07-01T09:01:20.891Z,24.4
2018-07-01T09:11:20.115Z,24.4
2018-07-01T09:21:19.338Z,24.5
2018-07-01T09:31:18.563Z,24.5
2018-07-01T09:41:17.788Z,24.4
2018-07-01T09:51:17.013Z,24.4
2018-07-01T10:01:16.242Z,24.4
2018-07-01T10:11:15.462Z,24.4
2018-07-01T10:21:14.687Z,24.4
2018-07-01T10:31:13.914Z,24.4
2018-07-01T10:41:13.140Z,24.6
2018-07-01T10:51:12.364Z,24.7
2018-07-01T11:01:11.591Z,24.7
2018-07-01T11:11:10.814Z,24.7
2018-07-01T11:21:10.036Z,24.8
2018-07-01T11:31:09.259Z,24.8
2018-07-01T11:41:08.482Z,24.8
2018-07-01T11:51:07.707Z,24.9
2018-07-01T12:01:06.929Z,25
2018-07-01T12:11:06.160Z,24.8
2018-07-01T12:21:05.379Z,24.8
2018-07-01T12:31:04.605Z,24.9
2018-07-01T12:41:03.833Z,24.9
2018-07-01T12:51:03.057Z,24.8
2018-07-01T13:01:02.283Z,24.8
2018-07-01T13:11:01.560Z,24.9
2018-07-01T13:21:00.738Z,24.8
2018-07-01T13:30:59.963Z,24.8
2018-07-01T13:40:59.189Z,24.8
2018-07-01T13:50:58.422Z,24.7
2018-07-01T14:00:57.640Z,24.7
2018-07-01T14:10:56.873Z,24.6
2018-07-01T14:20:56.103Z,24.6
2018-07-01T14:30:55.321Z,24.6
2018-07-01T14:40:54.547Z,24.6
2018-07-01T14:50:53.776Z,24.6
2018-07-01T15:00:53.000Z,24.5
2018-07-01T15:10:52.224Z,24.5
2018-07-01T15:20:51.451Z,24.5
2018-07-01T15:30:50.677Z,24.5
2018-07-01T15:40:49.902Z,24.5
2018-07-01T15:50:49.136Z,24.4
2018-07-01T16:00:48.363Z,24.4
2018-07-01T16:10:47.587Z,24.4
2018-07-01T16:20:46.812Z,24.4
2018-07-01T16:30:46.043Z,24.4
2018-07-01T16:40:45.314Z,24.3
2018-07-01T16:50:44.497Z,24.3
2018-07-01T17:00:43.719Z,24.3
2018-07-01T17:10:42.945Z,24.2
2018-07-01T17:20:42.174Z,24.1
2018-07-01T17:30:41.401Z,24.1
2018-07-01T17:40:40.627Z,24.1
2018-07-01T17:50:39.850Z,24
2018-07-01T18:00:39.077Z,23.9
2018-07-01T18:10:38.303Z,24
2018-07-01T18:20:37.539Z,24
2018-07-01T18:30:36.758Z,24.1
2018-07-01T18:40:35.984Z,24.1
2018-07-01T18:50:35.212Z,24.1
2018-07-01T19:07:50.770Z,24.2
2018-07-01T19:17:50.048Z,24.3
2018-07-01T19:27:49.227Z,24.3
2018-07-01T19:37:48.453Z,24.4
2018-07-01T19:47:47.677Z,24.5
2018-07-01T19:57:46.908Z,24.5
2018-07-01T20:07:46.175Z,24.6
2018-07-01T20:17:45.543Z,24.6
2018-07-01T20:27:44.795Z,24.6
2018-07-01T20:37:44.110Z,24.6
2018-07-01T20:47:43.426Z,24.7
2018-07-01T20:57:42.736Z,24.7
2018-07-01T21:07:41.961Z,24.7
2018-07-01T21:17:41.235Z,24.8
2018-07-01T21:27:40.416Z,24.7
2018-07-01T21:37:39.697Z,24.8
2018-07-01T21:47:38.867Z,24.8
2018-07-01T21:57:38.097Z,24.8
2018-07-01T22:07:37.320Z,24.8
2018-07-01T22:17:36.550Z,24.8
2018-07-01T22:27:35.771Z,24.8
2018-07-01T22:37:34.998Z,24.8
2018-07-01T22:47:34.227Z,24.8
2018-07-01T22:57:33.449Z,24.8
2018-07-01T23:07:32.674Z,24.8
2018-07-01T23:17:31.904Z,24.9
2018-07-01T23:27:31.127Z,24.8
2018-07-01T23:37:30.353Z,24.8
2018-07-01T23:47:29.583Z,24.8
2018-07-01T23:57:28.804Z,24.8
